Time;durP1;ratioP1;P1;durP2;ratioP2;P2;SDS_P1;SDS_P2;PMS_P1;PMS_P2;Temp;Humidity;BMP_temperature;BMP_pressure;BME280_temperature;BME280_humidity;BME280_pressure;Samples;Min_cycle;Max_cycle;Signal;HPM_P1;HPM_P2
2023/01/06 13:11:32;;;;;;;11.10;0.82;;;10.00;99.90;;;;;;6243959;23;20015;-86
2023/01/06 13:14:41;;;;;;;7.57;1.60;;;10.00;99.90;;;;;;6216393;23;20016;-85
2023/01/06 13:17:35;;;;;;;10.25;1.27;;;10.00;99.90;;;;;;6190330;23;20066;-85
2023/01/06 13:24:01;;;;;;;13.07;1.35;;;10.00;99.90;;;;;;6181104;23;20039;-84
2023/01/06 13:27:28;;;;;;;8.55;1.30;;;10.00;99.90;;;;;;6137319;23;20047;-85
2023/01/06 13:30:33;;;;;;;5.03;1.10;;;9.90;99.90;;;;;;6130978;23;20095;-85
2023/01/06 13:33:20;;;;;;;8.30;1.10;;;9.80;99.90;;;;;;6191759;23;20389;-87
2023/01/06 13:40:19;;;;;;;9.18;1.33;;;9.80;99.90;;;;;;6243796;23;20531;-85
2023/01/06 13:43:16;;;;;;;11.27;1.77;;;9.80;99.90;;;;;;6216653;23;20020;-84
2023/01/06 13:45:46;;;;;;;7.75;0.95;;;9.70;99.90;;;;;;6191675;23;20016;-86
2023/01/06 13:49:05;;;;;;;8.57;1.33;;;9.80;99.90;;;;;;6191950;23;20016;-85
2023/01/06 13:51:59;;;;;;;8.38;1.48;;;9.80;99.90;;;;;;6187876;23;20028;-84
2023/01/06 13:54:40;;;;;;;9.77;1.20;;;9.70;99.90;;;;;;6217321;23;20035;-82
2023/01/06 13:57:29;;;;;;;7.68;0.88;;;9.70;99.90;;;;;;6216529;23;20016;-85
2023/01/06 14:00:23;;;;;;;7.43;1.45;;;9.70;99.90;;;;;;6215569;23;20044;-84
2023/01/06 14:02:48;;;;;;;11.93;2.08;;;9.70;99.90;;;;;;6215121;23;20088;-82
2023/01/06 14:05:29;;;;;;;12.00;1.02;;;9.60;99.90;;;;;;6191260;23;20395;-83
2023/01/06 14:07:58;;;;;;;4.53;0.88;;;9.60;99.90;;;;;;6215824;23;20028;-83
2023/01/06 14:10:55;;;;;;;13.40;1.35;;;9.50;99.90;;;;;;6217401;23;20099;-82
2023/01/06 14:13:24;;;;;;;8.60;1.02;;;9.50;99.90;;;;;;6183699;23;20020;-83
2023/01/06 14:16:12;;;;;;;9.13;1.35;;;9.50;99.90;;;;;;6243329;23;20122;-82
2023/01/06 14:18:39;;;;;;;12.40;1.83;;;9.50;99.90;;;;;;6181976;23;20090;-82
2023/01/06 14:22:26;;;;;;;5.65;1.00;;;9.50;99.90;;;;;;6217064;23;20077;-83
2023/01/06 14:25:01;;;;;;;3.35;0.50;;;9.50;99.90;;;;;;5974135;23;20024;-84
2023/01/06 14:27:47;;;;;;;13.57;0.90;;;9.50;99.90;;;;;;6100535;23;20741;-82
2023/01/06 14:30:39;;;;;;;7.20;1.13;;;9.40;99.90;;;;;;6084322;23;20152;-84
2023/01/06 14:33:43;;;;;;;11.10;1.98;;;9.40;99.90;;;;;;6125685;23;20024;-84
2023/01/06 14:36:40;;;;;;;9.05;1.60;;;9.40;99.90;;;;;;6094468;23;20009;-84
2023/01/06 14:43:03;;;;;;;4.85;0.73;;;9.30;99.90;;;;;;6122746;23;20025;-84
2023/01/06 14:45:44;;;;;;;11.48;1.23;;;9.30;99.90;;;;;;6104729;23;20019;-83
2023/01/06 14:48:40;;;;;;;9.88;1.65;;;9.20;99.90;;;;;;6143604;23;20016;-83
2023/01/06 14:51:49;;;;;;;11.38;1.73;;;10.00;99.90;;;;;;6186046;23;20013;-84
2023/01/06 14:54:44;;;;;;;9.88;1.52;;;9.20;99.90;;;;;;6162014;23;20012;-84
2023/01/06 14:57:44;;;;;;;5.93;1.30;;;9.20;99.90;;;;;;6177214;23;20027;-83
2023/01/06 15:03:19;;;;;;;8.30;1.80;;;9.80;99.90;;;;;;6217762;23;20412;-81
2023/01/06 15:06:07;;;;;;;9.20;1.63;;;9.30;99.90;;;;;;6218715;23;20016;-82
2023/01/06 15:08:46;;;;;;;10.35;2.08;;;9.00;99.90;;;;;;6192525;23;20012;-82
2023/01/06 15:11:23;;;;;;;10.30;1.67;;;9.00;99.90;;;;;;6217865;23;20380;-82
2023/01/06 15:14:30;;;;;;;8.02;1.42;;;8.90;99.90;;;;;;6191863;23;20023;-84
2023/01/06 15:17:16;;;;;;;9.75;1.35;;;8.90;99.90;;;;;;6215081;23;20806;-83
2023/01/06 15:19:54;;;;;;;6.43;1.38;;;8.80;99.90;;;;;;6192154;23;20095;-84
2023/01/06 15:22:23;;;;;;;8.63;1.67;;;9.00;99.90;;;;;;6192175;23;20020;-84
2023/01/06 15:24:49;;;;;;;9.98;1.23;;;8.70;99.90;;;;;;6191683;23;20016;-84
2023/01/06 15:27:35;;;;;;;8.82;1.90;;;8.70;99.90;;;;;;6191861;23;20020;-83
2023/01/06 15:30:01;;;;;;;7.55;2.03;;;8.70;99.90;;;;;;6192048;23;20044;-84
2023/01/06 15:32:28;;;;;;;10.23;1.13;;;8.60;99.90;;;;;;6191864;23;20506;-84
2023/01/06 15:35:45;;;;;;;8.25;1.58;;;8.60;99.90;;;;;;6216240;23;20095;-84
2023/01/06 15:38:37;;;;;;;13.77;1.77;;;9.40;99.90;;;;;;6190887;23;20043;-84
2023/01/06 15:41:13;;;;;;;10.93;1.23;;;8.50;99.90;;;;;;6216562;23;20071;-84
2023/01/06 15:44:33;;;;;;;12.18;1.65;;;8.70;99.90;;;;;;6242774;23;20079;-83
2023/01/06 15:47:36;;;;;;;12.13;1.35;;;8.30;99.90;;;;;;6216681;23;20035;-86
2023/01/06 15:50:32;;;;;;;12.00;1.23;;;8.30;99.90;;;;;;6208478;23;20070;-84
2023/01/06 15:53:10;;;;;;;5.57;1.15;;;8.10;99.90;;;;;;6194155;23;20016;-82
2023/01/06 15:55:39;;;;;;;12.07;1.83;;;8.40;99.90;;;;;;6193240;23;20044;-84
2023/01/06 15:58:35;;;;;;;10.57;1.70;;;8.10;99.90;;;;;;6192215;23;20060;-83
2023/01/06 16:01:17;;;;;;;8.77;1.50;;;8.00;99.90;;;;;;6191601;23;20012;-82
2023/01/06 16:04:02;;;;;;;11.05;1.48;;;8.00;99.90;;;;;;6224452;23;20015;-82
2023/01/06 16:06:39;;;;;;;12.43;1.35;;;8.00;99.90;;;;;;6197619;23;20016;-83
2023/01/06 16:09:21;;;;;;;7.30;1.23;;;7.90;99.90;;;;;;6217849;23;20008;-80
2023/01/06 16:12:11;;;;;;;8.88;1.25;;;7.90;99.90;;;;;;6223140;23;20102;-84
2023/01/06 16:15:45;;;;;;;7.95;0.85;;;7.90;99.90;;;;;;6223897;23;20495;-84
2023/01/06 18:13:58;;;;;;;7.65;1.83;;;7.00;99.90;;;;;;6220499;23;20041;-84
2023/01/06 18:16:55;;;;;;;10.63;2.55;;;7.00;99.90;;;;;;6170740;23;20008;-85
2023/01/06 18:19:53;;;;;;;8.27;2.17;;;7.00;99.90;;;;;;6220358;23;20027;-83
2023/01/06 18:26:52;;;;;;;10.25;1.85;;;7.20;99.90;;;;;;6095967;23;20478;-85
2023/01/06 18:29:20;;;;;;;7.97;1.67;;;7.10;99.90;;;;;;6116554;23;20048;-85
2023/01/06 18:31:48;;;;;;;5.05;1.27;;;7.10;99.90;;;;;;6196055;23;20047;-82
2023/01/06 18:34:38;;;;;;;11.82;3.03;;;7.10;99.90;;;;;;6196841;23;20020;-84
2023/01/06 18:37:30;;;;;;;6.60;1.50;;;7.20;99.90;;;;;;6195266;23;20004;-85
2023/01/06 18:40:16;;;;;;;9.70;2.30;;;7.10;99.90;;;;;;6171836;23;20471;-84
2023/01/06 18:42:48;;;;;;;8.32;1.33;;;7.10;99.90;;;;;;6248821;23;20091;-86
2023/01/06 18:45:35;;;;;;;6.40;2.45;;;7.10;99.90;;;;;;6223219;23;20095;-84
2023/01/06 18:52:37;;;;;;;8.02;1.90;;;7.10;99.90;;;;;;6248667;23;20079;-84
2023/01/06 18:55:40;;;;;;;7.97;1.27;;;7.10;99.90;;;;;;6231372;23;20137;-84
2023/01/06 18:58:51;;;;;;;5.55;1.60;;;7.10;99.90;;;;;;6194753;23;20016;-84
2023/01/06 19:02:38;;;;;;;6.53;1.70;;;7.00;99.90;;;;;;6243195;23;20020;-86
2023/01/06 19:05:11;;;;;;;6.53;1.23;;;7.00;99.90;;;;;;6193000;23;20016;-83
2023/01/06 19:07:55;;;;;;;5.40;1.98;;;7.10;99.90;;;;;;6220003;23;20012;-83
2023/01/06 19:10:26;;;;;;;5.00;1.52;;;7.10;99.90;;;;;;6195280;23;20065;-84
2023/01/06 19:13:15;;;;;;;4.93;1.30;;;7.20;99.90;;;;;;6194997;23;20012;-87
2023/01/06 19:15:41;;;;;;;5.20;1.40;;;7.10;99.90;;;;;;6194929;23;20016;-84
2023/01/06 19:18:31;;;;;;;6.70;1.60;;;7.20;99.90;;;;;;6193232;23;20080;-83
2023/01/06 19:20:58;;;;;;;6.80;1.50;;;7.10;99.90;;;;;;6176198;23;20016;-82
2023/01/06 19:23:41;;;;;;;6.18;1.30;;;7.20;99.90;;;;;;6193161;23;20373;-83
2023/01/06 19:26:31;;;;;;;4.68;1.45;;;7.20;99.90;;;;;;6192449;23;20096;-82
2023/01/06 19:29:05;;;;;;;8.02;1.35;;;7.00;99.90;;;;;;6193393;23;20012;-82
2023/01/06 19:31:31;;;;;;;5.60;2.00;;;7.20;99.90;;;;;;6193907;23;20012;-83
2023/01/06 19:33:59;;;;;;;7.18;1.90;;;7.10;99.90;;;;;;6195058;23;20074;-85
2023/01/06 19:37:07;;;;;;;9.43;2.10;;;7.20;99.90;;;;;;6194611;23;20397;-85
2023/01/06 19:40:39;;;;;;;11.10;2.78;;;7.00;99.90;;;;;;6223193;23;20062;-84
2023/01/06 19:43:16;;;;;;;10.15;2.42;;;7.10;99.90;;;;;;6197031;23;20012;-84
2023/01/06 19:45:54;;;;;;;9.82;2.65;;;7.20;99.90;;;;;;6222005;23;20087;-84
2023/01/06 19:48:55;;;;;;;8.07;2.92;;;7.10;99.90;;;;;;6196948;23;20020;-84
2023/01/06 19:51:52;;;;;;;7.70;3.08;;;7.10;99.90;;;;;;6185247;23;20096;-84
2023/01/06 19:54:48;;;;;;;9.98;3.15;;;7.10;99.90;;;;;;6166928;23;20020;-82
2023/01/06 19:57:39;;;;;;;13.18;3.00;;;7.10;99.90;;;;;;6220254;23;20103;-85
2023/01/06 20:00:45;;;;;;;8.10;3.83;;;7.10;99.90;;;;;;6195132;23;20012;-86
2023/01/06 20:03:41;;;;;;;9.00;3.78;;;7.10;99.90;;;;;;6218282;23;20437;-82
2023/01/06 20:06:07;;;;;;;12.25;3.85;;;7.00;99.90;;;;;;6188817;23;20043;-83
2023/01/06 20:08:52;;;;;;;12.32;3.72;;;7.10;99.90;;;;;;6192810;23;20012;-84
2023/01/06 20:11:23;;;;;;;10.30;3.88;;;7.10;99.90;;;;;;6191908;23;20012;-82
2023/01/06 20:14:13;;;;;;;13.65;3.65;;;7.10;99.90;;;;;;6217771;23;20008;-82
2023/01/06 20:16:38;;;;;;;6.78;3.47;;;7.10;99.90;;;;;;6192439;23;20016;-82
2023/01/06 20:19:04;;;;;;;12.13;3.80;;;7.10;99.90;;;;;;6217569;23;20435;-83
2023/01/06 20:21:47;;;;;;;6.40;3.55;;;7.20;99.90;;;;;;6195311;23;20012;-82
2023/01/06 20:24:13;;;;;;;8.25;3.53;;;7.10;99.90;;;;;;6219679;23;20016;-83
2023/01/06 20:26:38;;;;;;;12.27;3.72;;;8.00;99.90;;;;;;6194007;23;20046;-83
2023/01/06 20:29:24;;;;;;;9.43;4.25;;;7.10;99.90;;;;;;6194306;23;20016;-82
2023/01/06 20:31:50;;;;;;;8.07;4.18;;;7.10;99.90;;;;;;6191846;23;20012;-83
2023/01/06 20:34:15;;;;;;;9.00;4.50;;;7.10;99.90;;;;;;6217570;23;20043;-82
2023/01/06 20:37:00;;;;;;;8.95;4.78;;;7.20;99.90;;;;;;6190906;23;20016;-83
2023/01/06 20:39:25;;;;;;;6.95;3.58;;;7.30;99.90;;;;;;6191057;23;20027;-82
2023/01/06 20:41:51;;;;;;;10.70;3.97;;;7.40;99.90;;;;;;6215449;23;20016;-83
2023/01/06 20:44:32;;;;;;;8.80;3.78;;;7.40;99.90;;;;;;6189701;23;20145;-82
2023/01/06 20:46:57;;;;;;;8.52;3.85;;;7.40;99.90;;;;;;6191940;23;20096;-84
2023/01/06 20:49:23;;;;;;;8.80;3.72;;;7.50;99.90;;;;;;6192413;23;20012;-83
2023/01/06 20:51:48;;;;;;;9.15;4.35;;;8.20;99.90;;;;;;6217502;23;20015;-83
2023/01/06 20:54:31;;;;;;;5.65;3.85;;;7.50;99.90;;;;;;6191692;23;20095;-82
2023/01/06 20:56:57;;;;;;;11.88;4.18;;;7.50;99.90;;;;;;6214500;23;20692;-83
2023/01/06 20:59:22;;;;;;;13.88;4.70;;;7.50;99.90;;;;;;6216495;23;20012;-82
2023/01/06 21:02:18;;;;;;;9.25;4.40;;;7.60;99.90;;;;;;6193606;23;20008;-83
2023/01/06 21:16:21;;;;;;;9.80;4.68;;;7.80;99.90;;;;;;6151084;23;20479;-84
2023/01/06 21:19:49;;;;;;;9.70;5.07;;;7.80;99.90;;;;;;6102560;23;20018;-85
2023/01/06 21:27:33;;;;;;;13.15;5.30;;;7.90;99.90;;;;;;6007628;23;20026;-85
2023/01/06 21:29:59;;;;;;;10.38;5.25;;;8.10;99.90;;;;;;5957467;23;20023;-84
2023/01/06 21:32:24;;;;;;;8.82;4.43;;;8.00;99.90;;;;;;5995122;23;20027;-84
2023/01/06 21:34:57;;;;;;;10.95;6.10;;;8.00;99.90;;;;;;6217721;23;20087;-85
2023/01/06 21:37:23;;;;;;;9.60;5.45;;;9.10;99.90;;;;;;6214433;23;20008;-86
2023/01/06 21:39:48;;;;;;;11.55;6.18;;;8.90;99.90;;;;;;6218056;23;20465;-84
2023/01/06 21:44:58;;;;;;;14.63;7.40;;;8.10;99.90;;;;;;6217908;23;20111;-84
2023/01/06 21:47:24;;;;;;;18.30;7.55;;;8.20;99.90;;;;;;6192587;23;20314;-84
2023/01/06 21:49:49;;;;;;;14.18;8.70;;;8.20;99.90;;;;;;6193120;23;20008;-84
2023/01/06 21:52:15;;;;;;;15.40;9.18;;;8.20;99.90;;;;;;6217232;23;20467;-85
2023/01/06 21:54:42;;;;;;;14.30;10.05;;;8.20;99.90;;;;;;6193670;23;20091;-86
2023/01/06 21:57:09;;;;;;;14.60;9.32;;;8.50;99.90;;;;;;6192545;23;20023;-85
2023/01/06 21:59:35;;;;;;;13.38;9.80;;;8.60;99.90;;;;;;6190579;23;20016;-83
2023/01/06 22:02:01;;;;;;;14.82;9.93;;;8.30;99.90;;;;;;6214970;23;20040;-82
2023/01/06 22:04:26;;;;;;;16.45;10.77;;;8.40;99.90;;;;;;6214792;23;20039;-83
2023/01/06 22:06:53;;;;;;;15.63;10.65;;;9.00;99.90;;;;;;6243019;23;20012;-83
2023/01/06 22:09:23;;;;;;;15.60;10.88;;;8.40;99.90;;;;;;6216942;23;20019;-82
2023/01/06 22:11:49;;;;;;;20.88;13.30;;;8.40;99.90;;;;;;6244405;23;20109;-83
2023/01/06 22:14:16;;;;;;;14.57;12.65;;;8.50;99.90;;;;;;6243722;23;20032;-83
2023/01/06 22:16:42;;;;;;;18.30;14.20;;;8.60;99.90;;;;;;6218482;23;20445;-83
2023/01/06 22:19:11;;;;;;;17.80;14.70;;;8.50;99.90;;;;;;6217149;23;20516;-84
2023/01/06 22:21:38;;;;;;;19.02;16.80;;;8.80;99.90;;;;;;6192489;23;20008;-83
2023/01/06 22:24:05;;;;;;;19.15;17.15;;;9.70;99.90;;;;;;6192255;23;20016;-83
2023/01/06 22:26:31;;;;;;;20.88;18.67;;;8.80;99.90;;;;;;6244154;23;20012;-82
2023/01/06 22:28:57;;;;;;;20.50;17.30;;;8.90;99.90;;;;;;6244229;23;20012;-84
2023/01/06 22:31:22;;;;;;;21.05;18.35;;;9.60;99.90;;;;;;6243486;23;20510;-83
2023/01/06 22:33:48;;;;;;;23.30;18.45;;;9.10;99.90;;;;;;6243947;23;20375;-83
2023/01/06 22:36:15;;;;;;;20.02;17.85;;;9.10;99.90;;;;;;6216579;23;20027;-83
2023/01/06 22:38:41;;;;;;;20.85;18.00;;;9.50;99.90;;;;;;6244212;23;20041;-83
2023/01/06 22:41:07;;;;;;;20.70;18.35;;;9.10;99.90;;;;;;6243822;23;20103;-83
2023/01/06 22:43:34;;;;;;;23.55;19.67;;;9.90;99.90;;;;;;6242806;23;20127;-83
2023/01/06 22:46:00;;;;;;;23.40;19.23;;;9.20;99.90;;;;;;6243419;23;20008;-83
2023/01/06 22:48:26;;;;;;;26.00;21.20;;;9.20;99.90;;;;;;6192339;23;20100;-85
2023/01/06 22:50:59;;;;;;;22.30;19.92;;;9.30;99.90;;;;;;6244927;23;20093;-85
2023/01/06 22:53:26;;;;;;;23.45;20.92;;;9.20;99.90;;;;;;6243236;23;20040;-82
2023/01/06 22:56:03;;;;;;;25.25;21.20;;;9.80;99.90;;;;;;6242742;23;20712;-83
2023/01/06 22:58:29;;;;;;;27.80;22.58;;;9.30;99.90;;;;;;6218325;23;20053;-83
2023/01/06 23:00:57;;;;;;;24.15;21.60;;;9.40;99.90;;;;;;6244786;23;20008;-84
2023/01/06 23:03:23;;;;;;;27.02;23.38;;;9.50;99.90;;;;;;6245489;23;20008;-83
2023/01/06 23:06:01;;;;;;;25.98;21.73;;;9.40;99.90;;;;;;6245878;23;20441;-84
2023/01/06 23:08:29;;;;;;;28.30;23.33;;;9.40;99.90;;;;;;6194557;23;20390;-83
2023/01/06 23:11:03;;;;;;;27.77;24.45;;;9.50;99.90;;;;;;6220159;23;20020;-83
2023/01/06 23:13:29;;;;;;;26.23;23.42;;;9.50;99.90;;;;;;6245332;23;20037;-83
2023/01/06 23:16:07;;;;;;;24.85;22.00;;;9.50;99.90;;;;;;6246021;23;20024;-82
2023/01/06 23:18:34;;;;;;;27.27;23.48;;;9.50;99.90;;;;;;6218670;23;20008;-83
2023/01/06 23:21:28;;;;;;;25.33;22.63;;;9.50;99.90;;;;;;6246241;23;20008;-83
2023/01/06 23:23:53;;;;;;;25.23;22.70;;;9.60;99.90;;;;;;6239141;23;20023;-82
2023/01/06 23:26:29;;;;;;;25.88;23.15;;;9.60;99.90;;;;;;6194415;23;20024;-83
2023/01/06 23:28:55;;;;;;;24.27;21.98;;;9.70;99.90;;;;;;6194242;23;20027;-82
2023/01/06 23:31:24;;;;;;;26.25;23.45;;;10.10;99.90;;;;;;6219201;23;20765;-83
2023/01/06 23:33:54;;;;;;;25.77;23.05;;;9.70;99.90;;;;;;6218633;23;20031;-83
2023/01/06 23:36:21;;;;;;;27.52;24.30;;;9.90;99.90;;;;;;6245415;23;20020;-83
2023/01/06 23:38:47;;;;;;;26.48;22.90;;;9.70;99.90;;;;;;6246428;23;20017;-83
2023/01/06 23:41:18;;;;;;;26.35;23.45;;;9.80;99.90;;;;;;6245937;23;20091;-83
2023/01/06 23:43:44;;;;;;;26.55;23.58;;;10.60;99.90;;;;;;6245943;23;20040;-84
2023/01/06 23:46:21;;;;;;;26.48;23.58;;;10.40;99.90;;;;;;6193023;23;20070;-83
2023/01/06 23:48:48;;;;;;;24.92;22.25;;;9.80;99.90;;;;;;6193941;23;20024;-83
2023/01/06 23:51:14;;;;;;;27.35;24.35;;;9.80;99.90;;;;;;6244014;23;20019;-83
2023/01/06 23:53:41;;;;;;;27.80;23.55;;;10.40;99.90;;;;;;6246140;23;20444;-83
2023/01/06 23:56:19;;;;;;;31.08;25.67;;;10.10;99.90;;;;;;6218318;23;20024;-83
2023/01/06 23:58:46;;;;;;;30.00;25.48;;;9.90;99.90;;;;;;6245912;23;20012;-83
